Time;durP1;ratioP1;P1;durP2;ratioP2;P2;SDS_P1;SDS_P2;PMS_P1;PMS_P2;Temp;Humidity;BMP_temperature;BMP_pressure;BME280_temperature;BME280_humidity;BME280_pressure;Samples;Min_cycle;Max_cycle;Signal;HPM_P1;HPM_P2
2024/02/12 00:00:18;;;;;;;62.43;29.50;;;9.40;99.90;;;;;;796482;179;26449;-79
2024/02/12 00:02:40;;;;;;;98.30;42.30;;;9.40;99.90;;;;;;796895;179;26436;-78
2024/02/12 00:05:10;;;;;;;92.60;44.13;;;9.40;99.90;;;;;;795517;179;26456;-78
2024/02/12 00:07:34;;;;;;;43.93;23.10;;;9.40;99.90;;;;;;793638;179;27013;-77
2024/02/12 00:10:05;;;;;;;87.13;40.37;;;9.40;99.90;;;;;;794724;179;26452;-78
2024/02/12 00:12:28;;;;;;;48.07;22.30;;;9.40;99.90;;;;;;797364;179;26435;-78
2024/02/12 00:14:54;;;;;;;60.90;31.87;;;9.40;99.90;;;;;;801344;176;26436;-79
2024/02/12 00:17:21;;;;;;;30.70;16.30;;;9.40;99.90;;;;;;798769;178;26998;-78
2024/02/12 00:19:49;;;;;;;36.03;18.77;;;9.40;99.90;;;;;;796766;179;26436;-78
2024/02/12 00:22:15;;;;;;;33.47;17.00;;;9.30;99.90;;;;;;796053;179;26435;-79
2024/02/12 00:24:41;;;;;;;15.40;8.30;;;9.30;99.90;;;;;;796671;179;27059;-78
2024/02/12 00:27:07;;;;;;;22.77;11.03;;;9.30;99.90;;;;;;798731;173;26451;-80
2024/02/12 00:29:34;;;;;;;21.80;11.37;;;9.20;99.90;;;;;;801208;175;26487;-82
2024/02/12 00:32:01;;;;;;;36.80;20.00;;;9.10;99.90;;;;;;800048;179;26438;-80
2024/02/12 00:34:28;;;;;;;140.47;70.37;;;9.00;99.90;;;;;;799065;176;26428;-78
2024/02/12 00:36:54;;;;;;;88.23;44.13;;;8.90;99.90;;;;;;797332;179;26469;-78
2024/02/12 00:39:20;;;;;;;29.00;15.30;;;8.90;99.90;;;;;;800695;176;26491;-80
2024/02/12 00:41:49;;;;;;;33.50;17.50;;;9.00;99.90;;;;;;796471;179;26456;-79
2024/02/12 00:44:15;;;;;;;40.30;23.73;;;9.00;99.90;;;;;;797660;178;26594;-79
2024/02/12 00:46:45;;;;;;;39.07;21.20;;;8.90;99.90;;;;;;797016;179;27019;-78
2024/02/12 00:49:08;;;;;;;101.43;52.37;;;8.80;99.90;;;;;;797809;177;26457;-79
2024/02/12 00:51:37;;;;;;;38.00;20.70;;;8.70;99.90;;;;;;795353;178;26970;-77
2024/02/12 00:54:01;;;;;;;15.83;8.47;;;8.70;99.90;;;;;;795846;179;26575;-79
2024/02/12 00:56:28;;;;;;;13.30;7.10;;;8.70;99.90;;;;;;793512;179;26429;-77
2024/02/12 00:58:55;;;;;;;13.80;6.17;;;8.70;99.90;;;;;;797827;179;26471;-78
2024/02/12 01:01:21;;;;;;;9.90;6.20;;;8.80;99.90;;;;;;797486;179;26506;-79
2024/02/12 01:03:49;;;;;;;12.53;6.53;;;8.90;99.90;;;;;;796165;179;26571;-80
2024/02/12 01:06:16;;;;;;;12.97;8.50;;;8.90;99.90;;;;;;800778;179;26426;-80
2024/02/12 01:08:41;;;;;;;13.60;7.17;;;9.00;99.90;;;;;;798645;179;26463;-79
2024/02/12 01:11:08;;;;;;;15.13;9.83;;;9.10;99.90;;;;;;798764;179;26456;-81
2024/02/12 01:13:34;;;;;;;12.77;7.60;;;9.10;99.90;;;;;;797655;179;26458;-79
2024/02/12 01:16:01;;;;;;;18.03;10.97;;;9.10;99.90;;;;;;795509;179;26489;-79
2024/02/12 01:18:28;;;;;;;21.80;13.47;;;9.10;99.90;;;;;;796537;179;26481;-79
2024/02/12 01:20:55;;;;;;;12.63;7.10;;;9.10;99.90;;;;;;797265;179;26448;-78
2024/02/12 01:23:21;;;;;;;25.67;14.33;;;9.20;99.90;;;;;;796977;178;26965;-78
2024/02/12 01:25:49;;;;;;;17.20;8.70;;;9.20;99.90;;;;;;797369;177;26454;-79
2024/02/12 01:28:15;;;;;;;13.97;9.50;;;9.20;99.90;;;;;;798063;178;26443;-76
2024/02/12 01:30:42;;;;;;;8.23;6.50;;;9.20;99.90;;;;;;798088;177;26464;-78
2024/02/12 01:33:07;;;;;;;11.33;7.27;;;9.20;99.90;;;;;;798090;179;26425;-78
2024/02/12 01:35:34;;;;;;;10.17;6.57;;;9.20;99.90;;;;;;798061;179;26432;-79
2024/02/12 01:38:00;;;;;;;11.63;8.17;;;9.20;99.90;;;;;;798383;179;26448;-79
2024/02/12 01:40:27;;;;;;;15.67;9.80;;;9.20;99.90;;;;;;799121;175;26607;-78
2024/02/12 01:42:53;;;;;;;18.07;11.17;;;9.20;99.90;;;;;;797717;179;26433;-78
2024/02/12 01:45:26;;;;;;;16.07;9.83;;;9.20;99.90;;;;;;797445;179;26442;-78
2024/02/12 01:47:46;;;;;;;20.20;10.97;;;9.20;99.90;;;;;;795285;179;26444;-77
2024/02/12 01:50:13;;;;;;;11.97;9.17;;;9.10;99.90;;;;;;796381;179;27016;-79
2024/02/12 01:52:40;;;;;;;15.57;10.30;;;9.00;99.90;;;;;;800187;179;26439;-79
2024/02/12 01:55:07;;;;;;;14.40;11.07;;;8.90;99.90;;;;;;796923;179;26432;-79
2024/02/12 01:57:34;;;;;;;20.77;12.87;;;8.90;99.90;;;;;;796401;179;26611;-78
2024/02/12 02:00:04;;;;;;;16.60;11.93;;;8.90;99.90;;;;;;796585;179;26435;-78
2024/02/12 02:02:27;;;;;;;19.00;13.33;;;8.90;99.90;;;;;;795955;179;26957;-78
2024/02/12 02:04:54;;;;;;;21.10;14.90;;;8.90;99.90;;;;;;796662;179;26595;-78
2024/02/12 02:07:21;;;;;;;61.70;30.37;;;8.90;99.90;;;;;;795684;179;26448;-77
2024/02/12 02:09:47;;;;;;;26.73;16.77;;;8.90;99.90;;;;;;791844;179;26465;-77
2024/02/12 02:12:14;;;;;;;31.03;18.57;;;8.90;99.90;;;;;;794451;179;26425;-77
2024/02/12 02:14:42;;;;;;;23.07;13.87;;;8.90;99.90;;;;;;795880;179;26445;-78
2024/02/12 02:17:08;;;;;;;21.13;15.63;;;8.90;99.90;;;;;;794340;179;26524;-77
2024/02/12 02:19:34;;;;;;;86.13;41.80;;;8.90;99.90;;;;;;795648;179;26635;-77
2024/02/12 02:22:02;;;;;;;42.10;22.67;;;8.90;99.90;;;;;;794903;179;26428;-79
2024/02/12 02:24:28;;;;;;;56.90;31.33;;;8.90;99.90;;;;;;796156;179;26427;-79
2024/02/12 02:26:54;;;;;;;37.60;21.60;;;8.90;99.90;;;;;;794612;179;26452;-77
2024/02/12 02:29:21;;;;;;;27.53;17.93;;;8.90;99.90;;;;;;799841;174;27009;-77
2024/02/12 02:31:47;;;;;;;24.80;16.27;;;8.80;99.90;;;;;;825137;173;26396;-76
2024/02/12 02:34:14;;;;;;;24.03;15.50;;;8.80;99.90;;;;;;823591;173;26958;-76
2024/02/12 02:36:46;;;;;;;21.90;15.87;;;8.80;99.90;;;;;;831048;170;26410;-78
2024/02/12 02:39:09;;;;;;;22.23;14.57;;;8.90;99.90;;;;;;791881;176;26480;-78
2024/02/12 02:41:36;;;;;;;24.47;16.17;;;8.90;99.90;;;;;;792934;178;26430;-77
2024/02/12 02:44:04;;;;;;;24.03;16.60;;;8.90;99.90;;;;;;814969;176;26424;-78
2024/02/12 02:46:29;;;;;;;24.40;16.83;;;8.80;99.90;;;;;;784865;179;28142;-76
2024/02/12 02:48:55;;;;;;;26.30;17.00;;;8.80;99.90;;;;;;792522;178;26455;-76
2024/02/12 02:51:27;;;;;;;25.03;16.83;;;8.80;99.90;;;;;;809384;176;26433;-76
2024/02/12 02:53:55;;;;;;;27.17;16.83;;;8.80;99.90;;;;;;811413;176;26439;-76
2024/02/12 02:56:22;;;;;;;29.37;19.10;;;8.70;99.90;;;;;;808863;176;26507;-74
2024/02/12 02:58:49;;;;;;;32.53;19.83;;;8.80;99.90;;;;;;816455;172;28778;-75
2024/02/12 03:01:15;;;;;;;35.07;20.20;;;8.70;99.90;;;;;;807565;176;26574;-76
2024/02/12 03:03:41;;;;;;;28.10;18.60;;;8.70;99.90;;;;;;808842;175;26434;-76
2024/02/12 03:06:09;;;;;;;27.53;18.20;;;8.70;99.90;;;;;;806474;175;27089;-76
2024/02/12 03:08:35;;;;;;;31.70;19.47;;;8.70;99.90;;;;;;810720;176;26413;-76
2024/02/12 03:11:01;;;;;;;29.80;17.97;;;8.70;99.90;;;;;;808732;174;28177;-76
2024/02/12 03:13:28;;;;;;;33.60;20.70;;;8.70;99.90;;;;;;807438;176;26418;-76
2024/02/12 03:15:54;;;;;;;31.13;19.57;;;8.70;99.90;;;;;;810877;176;26402;-76
2024/02/12 03:18:22;;;;;;;33.77;20.87;;;8.70;99.90;;;;;;811451;176;26429;-76
2024/02/12 03:20:49;;;;;;;36.53;22.83;;;8.70;99.90;;;;;;791922;180;26560;-75
2024/02/12 03:23:14;;;;;;;36.23;22.53;;;8.70;99.90;;;;;;792754;180;26500;-77
2024/02/12 03:25:41;;;;;;;32.33;20.67;;;8.70;99.90;;;;;;806170;177;26430;-76
2024/02/12 03:28:08;;;;;;;36.10;21.87;;;8.70;99.90;;;;;;808345;177;26461;-77
2024/02/12 03:30:34;;;;;;;39.57;22.67;;;8.70;99.90;;;;;;811073;176;26530;-76
2024/02/12 03:33:02;;;;;;;38.13;23.07;;;8.60;99.90;;;;;;809914;176;26959;-76
2024/02/12 03:35:27;;;;;;;37.03;21.87;;;8.70;99.90;;;;;;808435;177;26401;-74
2024/02/12 03:37:54;;;;;;;42.03;23.37;;;8.70;99.90;;;;;;810222;177;27013;-76
2024/02/12 03:40:26;;;;;;;40.23;23.27;;;8.70;99.90;;;;;;791357;179;26568;-75
2024/02/12 03:42:49;;;;;;;37.07;21.50;;;8.70;99.90;;;;;;775510;181;26460;-76
2024/02/12 03:45:15;;;;;;;41.73;23.83;;;8.70;99.90;;;;;;810595;175;26516;-77
2024/02/12 03:47:40;;;;;;;40.00;22.90;;;8.70;99.90;;;;;;812236;173;26695;-76
2024/02/12 04:00:19;;;;;;;40.10;23.50;;;8.80;99.90;;;;;;809101;174;26623;-76
2024/02/12 04:02:46;;;;;;;43.70;25.07;;;8.80;99.90;;;;;;810827;175;26432;-76
2024/02/12 04:05:12;;;;;;;34.97;23.23;;;8.80;99.90;;;;;;811515;176;26424;-76
2024/02/12 04:07:39;;;;;;;40.60;23.87;;;8.80;99.90;;;;;;786202;180;26450;-77
2024/02/12 04:10:10;;;;;;;38.87;23.90;;;8.80;99.90;;;;;;776399;181;26556;-77
2024/02/12 04:12:33;;;;;;;36.00;22.20;;;8.70;99.90;;;;;;775605;181;26470;-77
2024/02/12 04:15:03;;;;;;;35.87;23.70;;;8.80;99.90;;;;;;813461;176;26413;-76
2024/02/12 04:17:29;;;;;;;36.40;22.63;;;8.80;99.90;;;;;;811657;176;26404;-77
2024/02/12 04:19:56;;;;;;;35.23;22.40;;;8.80;99.90;;;;;;809902;176;26506;-76
2024/02/12 04:22:26;;;;;;;38.10;24.40;;;8.80;99.90;;;;;;806489;177;26959;-77
2024/02/12 04:24:49;;;;;;;39.37;22.80;;;8.70;99.90;;;;;;793392;180;26444;-77
2024/02/12 04:27:18;;;;;;;41.60;24.80;;;8.70;99.90;;;;;;808300;176;26972;-77
2024/02/12 04:29:44;;;;;;;37.13;22.87;;;8.70;99.90;;;;;;798390;176;26523;-77
2024/02/12 04:32:11;;;;;;;36.80;23.27;;;8.70;99.90;;;;;;813080;176;26986;-77
2024/02/12 04:34:39;;;;;;;38.23;22.73;;;8.80;99.90;;;;;;779399;180;26509;-77
2024/02/12 04:37:12;;;;;;;40.90;24.17;;;8.70;99.90;;;;;;812839;174;26448;-77
2024/02/12 04:39:39;;;;;;;41.30;23.03;;;8.80;99.90;;;;;;811224;176;26519;-77
2024/02/12 04:42:05;;;;;;;34.13;22.73;;;8.80;99.90;;;;;;813597;176;26409;-77
2024/02/12 04:44:32;;;;;;;36.27;22.73;;;8.80;99.90;;;;;;802408;178;26488;-77
2024/02/12 04:47:00;;;;;;;39.03;22.67;;;8.80;99.90;;;;;;806707;176;26964;-76
2024/02/12 04:49:27;;;;;;;32.40;22.07;;;8.80;99.90;;;;;;804620;176;26437;-76
2024/02/12 04:51:53;;;;;;;40.77;22.70;;;8.90;99.90;;;;;;806736;176;26963;-77
2024/02/12 04:54:19;;;;;;;35.90;21.60;;;8.90;99.90;;;;;;793543;180;26488;-77
2024/02/12 04:56:46;;;;;;;38.73;23.27;;;8.80;99.90;;;;;;809237;176;26440;-77
2024/02/12 04:59:12;;;;;;;36.20;23.10;;;8.80;99.90;;;;;;789174;180;26548;-77
2024/02/12 05:01:40;;;;;;;36.20;22.17;;;8.80;99.90;;;;;;791377;179;26580;-77
2024/02/12 05:04:06;;;;;;;33.97;23.87;;;8.80;99.90;;;;;;792457;179;26442;-77
2024/02/12 05:06:33;;;;;;;38.50;22.30;;;8.90;99.90;;;;;;782741;181;26563;-76
2024/02/12 05:08:59;;;;;;;36.67;22.33;;;8.90;99.90;;;;;;811977;175;26484;-76
2024/02/12 05:11:27;;;;;;;35.27;20.30;;;8.90;99.90;;;;;;813704;175;26400;-77
2024/02/12 05:13:54;;;;;;;31.00;19.33;;;8.90;99.90;;;;;;810818;176;27007;-76
2024/02/12 05:16:29;;;;;;;34.77;22.27;;;8.80;99.90;;;;;;812665;175;26429;-76
2024/02/12 05:23:52;;;;;;;32.63;19.90;;;8.80;99.90;;;;;;790331;180;27069;-76
2024/02/12 05:26:18;;;;;;;27.50;19.30;;;8.80;99.90;;;;;;783633;181;26511;-76
2024/02/12 05:28:45;;;;;;;29.37;20.70;;;8.70;99.90;;;;;;775793;185;26524;-74
2024/02/12 05:31:12;;;;;;;26.57;18.77;;;8.70;99.90;;;;;;776451;181;27065;-77
2024/02/12 05:33:38;;;;;;;28.17;19.80;;;8.70;99.90;;;;;;810345;175;26445;-76
2024/02/12 05:36:06;;;;;;;35.27;20.53;;;8.60;99.90;;;;;;816487;176;26427;-76
2024/02/12 05:38:32;;;;;;;39.23;21.40;;;8.60;99.90;;;;;;784646;179;26474;-77
2024/02/12 05:40:58;;;;;;;39.53;22.97;;;8.70;99.90;;;;;;784355;180;26551;-76
2024/02/12 05:43:25;;;;;;;31.70;20.27;;;8.70;99.90;;;;;;810034;175;26413;-77
2024/02/12 05:45:51;;;;;;;31.93;20.20;;;8.70;99.90;;;;;;813645;175;26419;-75
2024/02/12 05:48:18;;;;;;;35.50;20.13;;;8.70;99.90;;;;;;811205;176;26429;-76
2024/02/12 05:50:45;;;;;;;30.80;20.87;;;8.70;99.90;;;;;;784761;182;26524;-77
2024/02/12 05:53:11;;;;;;;36.63;20.83;;;8.60;99.90;;;;;;792190;180;26459;-75
2024/02/12 05:55:40;;;;;;;29.60;19.10;;;8.60;99.90;;;;;;808389;177;26419;-77
2024/02/12 05:58:08;;;;;;;32.03;19.30;;;8.60;99.90;;;;;;791416;178;26479;-76
2024/02/12 06:00:33;;;;;;;38.33;21.93;;;8.60;99.90;;;;;;796749;176;27001;-76
2024/02/12 06:03:00;;;;;;;36.13;20.60;;;8.60;99.90;;;;;;810013;176;26465;-76
2024/02/12 06:05:27;;;;;;;36.77;21.93;;;8.60;99.90;;;;;;800365;177;27008;-77
2024/02/12 06:07:53;;;;;;;32.97;21.00;;;8.60;99.90;;;;;;802998;176;26416;-76
2024/02/12 06:10:20;;;;;;;34.60;21.17;;;8.50;99.90;;;;;;775180;181;27037;-77
2024/02/12 06:12:47;;;;;;;33.60;20.97;;;8.50;99.90;;;;;;812885;175;26408;-75
2024/02/12 06:15:13;;;;;;;31.73;21.23;;;8.50;99.90;;;;;;814564;175;26431;-72
2024/02/12 06:17:40;;;;;;;35.90;22.23;;;8.50;99.90;;;;;;810835;175;26432;-72
2024/02/12 06:20:07;;;;;;;37.43;21.03;;;8.50;99.90;;;;;;813347;176;27028;-71
2024/02/12 06:22:33;;;;;;;33.13;20.47;;;8.50;99.90;;;;;;803222;176;26449;-72
2024/02/12 06:25:05;;;;;;;39.57;21.13;;;8.50;99.90;;;;;;778372;181;27200;-73
2024/02/12 06:27:27;;;;;;;36.77;22.80;;;8.50;99.90;;;;;;810255;174;26441;-76
2024/02/12 06:29:54;;;;;;;36.57;23.20;;;8.50;99.90;;;;;;811901;176;26505;-76
2024/02/12 06:32:20;;;;;;;29.87;19.37;;;8.40;99.90;;;;;;782792;179;26482;-77
2024/02/12 06:34:47;;;;;;;34.00;19.53;;;8.50;99.90;;;;;;794307;180;26448;-76
2024/02/12 06:37:14;;;;;;;36.10;20.83;;;8.50;99.90;;;;;;794792;180;26989;-76
2024/02/12 06:39:40;;;;;;;38.80;21.93;;;8.50;99.90;;;;;;790746;180;26473;-76
2024/02/12 06:42:07;;;;;;;31.90;20.27;;;8.60;99.90;;;;;;792333;180;27006;-76
2024/02/12 06:44:33;;;;;;;32.23;20.00;;;8.60;99.90;;;;;;790166;180;26446;-76
2024/02/12 06:47:00;;;;;;;37.90;22.53;;;8.50;99.90;;;;;;810537;176;27006;-78
2024/02/12 06:49:27;;;;;;;36.63;22.33;;;8.50;99.90;;;;;;805450;177;26464;-76
2024/02/12 06:51:53;;;;;;;34.87;20.17;;;8.60;99.90;;;;;;809926;176;26596;-76
2024/02/12 06:54:20;;;;;;;29.47;20.47;;;8.60;99.90;;;;;;805364;177;26401;-76
2024/02/12 06:56:46;;;;;;;37.80;21.13;;;8.50;99.90;;;;;;808536;176;26430;-77
2024/02/12 06:59:13;;;;;;;31.77;20.07;;;8.60;99.90;;;;;;811206;177;26421;-76
2024/02/12 07:01:40;;;;;;;30.33;19.80;;;8.60;99.90;;;;;;807997;176;26402;-77
2024/02/12 07:04:06;;;;;;;35.80;20.77;;;8.70;99.90;;;;;;807102;175;26430;-76
2024/02/12 07:06:34;;;;;;;44.20;21.10;;;8.60;99.90;;;;;;808071;176;26469;-76
2024/02/12 07:08:59;;;;;;;35.13;20.47;;;8.60;99.90;;;;;;808203;176;26984;-77
2024/02/12 07:11:27;;;;;;;35.53;20.43;;;8.60;99.90;;;;;;808987;176;26409;-76
2024/02/12 07:13:53;;;;;;;36.80;20.77;;;8.60;99.90;;;;;;812524;175;26400;-75
2024/02/12 07:16:19;;;;;;;36.73;21.40;;;8.60;99.90;;;;;;815158;175;26421;-77
2024/02/12 07:18:46;;;;;;;34.83;19.97;;;8.60;99.90;;;;;;811237;175;26989;-77
2024/02/12 07:21:13;;;;;;;31.27;18.77;;;8.60;99.90;;;;;;783972;181;26468;-77
2024/02/12 07:23:40;;;;;;;40.20;21.10;;;8.60;99.90;;;;;;810195;175;26460;-76
2024/02/12 07:26:07;;;;;;;31.67;19.60;;;8.60;99.90;;;;;;811140;175;26423;-76
2024/02/12 07:28:34;;;;;;;27.47;19.53;;;8.60;99.90;;;;;;815964;175;26983;-76
2024/02/12 07:31:00;;;;;;;29.80;18.77;;;8.70;99.90;;;;;;815645;175;26416;-76
2024/02/12 07:33:27;;;;;;;32.57;18.50;;;8.70;99.90;;;;;;790374;180;27069;-77
2024/02/12 07:35:55;;;;;;;34.83;19.97;;;8.70;99.90;;;;;;804237;176;26457;-76
2024/02/12 07:38:20;;;;;;;37.07;20.50;;;8.70;99.90;;;;;;801362;177;26504;-77
2024/02/12 07:40:47;;;;;;;35.87;19.67;;;8.70;99.90;;;;;;811843;176;26440;-78
2024/02/12 07:43:14;;;;;;;29.07;18.63;;;8.70;99.90;;;;;;797014;176;26570;-77
2024/02/12 07:45:42;;;;;;;30.30;18.80;;;8.70;99.90;;;;;;776913;182;26449;-77
2024/02/12 07:48:08;;;;;;;33.13;18.73;;;8.70;99.90;;;;;;810841;173;26400;-77
2024/02/12 07:50:33;;;;;;;30.70;19.03;;;8.70;99.90;;;;;;810880;173;26453;-77
2024/02/12 07:53:00;;;;;;;42.17;20.90;;;8.70;99.90;;;;;;813244;175;26465;-78
2024/02/12 07:55:27;;;;;;;36.43;20.10;;;8.70;99.90;;;;;;815194;176;27006;-77
2024/02/12 07:57:53;;;;;;;34.13;20.73;;;8.70;99.90;;;;;;785936;179;26518;-76
2024/02/12 08:00:20;;;;;;;33.37;20.10;;;8.70;99.90;;;;;;795326;180;27019;-77
2024/02/12 08:02:46;;;;;;;33.23;19.27;;;8.70;99.90;;;;;;796227;179;26458;-77
2024/02/12 08:05:14;;;;;;;34.43;19.60;;;8.70;99.90;;;;;;790233;180;26504;-77
2024/02/12 08:07:39;;;;;;;30.97;19.00;;;8.80;99.90;;;;;;806734;177;26405;-77
2024/02/12 08:10:07;;;;;;;33.77;20.10;;;8.80;99.90;;;;;;807738;173;26562;-77
2024/02/12 08:12:33;;;;;;;29.60;18.13;;;8.70;99.90;;;;;;807403;174;27002;-76
2024/02/12 08:14:59;;;;;;;29.97;18.73;;;8.70;99.90;;;;;;807138;175;26421;-76
2024/02/12 08:17:27;;;;;;;30.30;18.40;;;8.70;99.90;;;;;;807596;176;26446;-77
2024/02/12 08:19:54;;;;;;;33.90;19.07;;;8.60;99.90;;;;;;807429;176;26436;-77
2024/02/12 08:22:19;;;;;;;32.70;18.53;;;8.60;99.90;;;;;;807764;176;27054;-77
2024/02/12 08:24:46;;;;;;;28.50;17.57;;;8.70;99.90;;;;;;808877;175;26480;-77
2024/02/12 08:27:12;;;;;;;28.63;18.27;;;8.70;99.90;;;;;;811016;176;27120;-76
2024/02/12 08:29:39;;;;;;;31.37;19.27;;;8.60;99.90;;;;;;784067;174;26510;-76
2024/02/12 08:32:06;;;;;;;31.83;18.23;;;8.70;99.90;;;;;;789058;180;26606;-78
2024/02/12 08:34:33;;;;;;;31.30;16.90;;;8.70;99.90;;;;;;786927;178;26554;-78
2024/02/12 08:36:59;;;;;;;28.67;17.80;;;8.70;99.90;;;;;;790761;179;26504;-77
2024/02/12 08:39:26;;;;;;;31.97;17.93;;;8.70;99.90;;;;;;789454;178;26496;-76
2024/02/12 08:41:53;;;;;;;32.60;17.87;;;8.80;99.90;;;;;;783836;181;26810;-76
2024/02/12 08:44:19;;;;;;;29.87;16.87;;;8.80;99.90;;;;;;777880;182;27037;-76
2024/02/12 08:46:46;;;;;;;34.17;17.40;;;8.80;99.90;;;;;;773370;183;26517;-77
2024/02/12 08:49:14;;;;;;;28.73;16.00;;;8.80;99.90;;;;;;773484;180;27081;-78
2024/02/12 08:51:39;;;;;;;25.50;16.30;;;8.90;99.90;;;;;;775736;181;27135;-77
2024/02/12 08:54:06;;;;;;;26.97;15.53;;;8.90;99.90;;;;;;776952;181;26478;-79
2024/02/12 08:56:36;;;;;;;26.17;14.83;;;8.90;99.90;;;;;;777192;184;26479;-79
2024/02/12 08:59:01;;;;;;;25.43;14.80;;;9.00;99.90;;;;;;776715;183;26528;-78
2024/02/12 09:01:38;;;;;;;23.27;14.30;;;9.10;99.90;;;;;;776846;180;26524;-79
2024/02/12 09:07:09;;;;;;;20.40;13.20;;;9.20;99.90;;;;;;760271;186;26475;-78
2024/02/12 09:09:41;;;;;;;26.10;13.37;;;9.20;99.90;;;;;;775612;177;26472;-78
2024/02/12 09:12:08;;;;;;;25.90;13.97;;;9.20;99.90;;;;;;803336;177;26778;-83
2024/02/12 09:14:36;;;;;;;23.93;13.00;;;9.40;99.90;;;;;;804611;178;26446;-83
2024/02/12 09:17:03;;;;;;;22.10;13.93;;;9.40;99.90;;;;;;805806;177;26409;-83
2024/02/12 09:19:31;;;;;;;25.40;13.33;;;9.40;99.90;;;;;;812754;176;26956;-84
2024/02/12 09:21:57;;;;;;;25.40;14.00;;;9.60;99.90;;;;;;809710;176;26389;-84
2024/02/12 09:24:24;;;;;;;15.70;11.30;;;9.60;99.90;;;;;;809118;177;26401;-84
2024/02/12 09:26:50;;;;;;;22.33;12.90;;;9.60;99.90;;;;;;809835;176;26978;-82
2024/02/12 09:29:17;;;;;;;24.50;13.70;;;9.50;99.90;;;;;;808801;177;26406;-82
2024/02/12 09:31:45;;;;;;;21.27;11.97;;;9.60;99.90;;;;;;809847;175;26418;-83
2024/02/12 09:34:11;;;;;;;23.33;13.07;;;9.60;99.90;;;;;;812182;175;26434;-83
2024/02/12 09:36:42;;;;;;;20.47;12.20;;;9.60;99.90;;;;;;811425;176;26423;-83
2024/02/12 09:39:05;;;;;;;18.67;12.00;;;9.60;99.90;;;;;;808235;175;27009;-83
2024/02/12 09:41:33;;;;;;;21.17;13.07;;;9.50;99.90;;;;;;812079;177;26393;-84
2024/02/12 09:43:59;;;;;;;19.33;10.93;;;9.60;99.90;;;;;;809217;175;27236;-83
2024/02/12 09:46:25;;;;;;;19.07;10.47;;;9.60;99.90;;;;;;811941;175;26470;-83
2024/02/12 09:48:52;;;;;;;19.07;10.60;;;9.50;99.90;;;;;;811927;176;26423;-83
2024/02/12 09:51:19;;;;;;;17.03;11.57;;;9.50;99.90;;;;;;812928;176;26405;-83
2024/02/12 09:53:51;;;;;;;22.13;11.50;;;9.60;99.90;;;;;;810670;172;27041;-84
2024/02/12 09:56:13;;;;;;;19.53;11.03;;;9.80;99.90;;;;;;812976;176;26942;-83
2024/02/12 09:58:40;;;;;;;28.67;17.40;;;9.80;99.90;;;;;;810043;176;26985;-83
2024/02/12 10:01:07;;;;;;;17.47;10.87;;;9.80;99.90;;;;;;812568;176;26413;-82
2024/02/12 10:03:33;;;;;;;15.13;9.70;;;9.90;99.90;;;;;;812546;174;26601;-82
2024/02/12 10:06:00;;;;;;;13.87;8.23;;;10.00;99.90;;;;;;812316;172;26417;-82
2024/02/12 10:08:27;;;;;;;14.73;9.50;;;9.90;99.90;;;;;;808753;176;26422;-82
2024/02/12 10:10:53;;;;;;;13.43;8.60;;;10.10;99.90;;;;;;811337;176;26423;-82
2024/02/12 10:13:20;;;;;;;13.07;8.10;;;10.10;99.30;;;;;;813252;176;26459;-82
2024/02/12 10:15:49;;;;;;;11.80;7.70;;;10.30;99.90;;;;;;812315;176;26396;-83
2024/02/12 10:18:16;;;;;;;13.67;7.93;;;10.50;99.90;;;;;;812433;173;26418;-83
2024/02/12 10:20:42;;;;;;;13.00;8.53;;;10.80;98.80;;;;;;811697;175;26445;-82
2024/02/12 10:23:09;;;;;;;20.63;12.47;;;10.80;98.10;;;;;;811695;176;26500;-82
2024/02/12 10:25:41;;;;;;;15.47;8.50;;;11.10;97.60;;;;;;812579;177;26412;-83
2024/02/12 10:28:07;;;;;;;10.93;6.83;;;11.40;97.10;;;;;;807836;177;26439;-83
2024/02/12 10:30:34;;;;;;;17.83;8.90;;;11.30;96.50;;;;;;813474;176;26420;-83
2024/02/12 10:33:01;;;;;;;15.27;8.07;;;11.60;96.40;;;;;;813075;177;26417;-83
2024/02/12 10:35:28;;;;;;;14.90;7.47;;;11.60;96.70;;;;;;812191;174;26600;-83
2024/02/12 10:37:54;;;;;;;17.87;8.27;;;11.80;95.20;;;;;;810692;177;26429;-83
2024/02/12 10:40:21;;;;;;;17.10;8.80;;;12.00;94.50;;;;;;812830;177;26464;-84
2024/02/12 10:42:50;;;;;;;31.63;17.23;;;12.20;91.80;;;;;;809752;177;26415;-84
2024/02/12 10:45:15;;;;;;;12.90;7.10;;;12.00;91.10;;;;;;812458;175;26410;-83
2024/02/12 10:47:42;;;;;;;12.00;6.80;;;12.10;92.40;;;;;;811749;177;26428;-84
2024/02/12 10:50:13;;;;;;;13.97;6.23;;;12.00;92.40;;;;;;807803;176;26460;-81
2024/02/12 10:52:37;;;;;;;12.90;6.80;;;12.10;92.60;;;;;;809259;177;26419;-81
2024/02/12 10:55:09;;;;;;;20.77;10.53;;;11.90;92.90;;;;;;813550;177;26428;-81
2024/02/12 10:57:38;;;;;;;11.33;6.87;;;12.00;92.60;;;;;;811024;175;26459;-81
2024/02/12 11:00:07;;;;;;;10.43;5.67;;;12.00;91.90;;;;;;812555;174;26423;-81
2024/02/12 11:02:43;;;;;;;14.37;6.77;;;12.10;91.90;;;;;;811850;176;26410;-80
2024/02/12 11:05:10;;;;;;;15.53;8.80;;;12.20;92.90;;;;;;813484;174;26428;-81
2024/02/12 11:07:37;;;;;;;8.97;4.17;;;12.40;92.00;;;;;;813963;175;26430;-79
2024/02/12 11:10:04;;;;;;;7.40;4.43;;;12.10;92.40;;;;;;811242;177;26414;-79
2024/02/12 11:12:33;;;;;;;9.50;4.90;;;12.40;92.50;;;;;;811928;176;26408;-80
2024/02/12 11:14:58;;;;;;;9.63;4.50;;;12.30;90.70;;;;;;814243;176;26403;-80
2024/02/12 11:17:27;;;;;;;11.63;5.60;;;11.90;91.90;;;;;;812367;175;26418;-83
2024/02/12 11:19:53;;;;;;;9.10;4.97;;;11.90;94.00;;;;;;811494;176;26563;-82
2024/02/12 11:22:25;;;;;;;10.13;4.40;;;11.70;92.70;;;;;;812602;176;26475;-82
2024/02/12 11:24:52;;;;;;;12.53;5.40;;;11.50;93.60;;;;;;813579;175;26967;-84
2024/02/12 11:27:18;;;;;;;8.20;3.23;;;11.70;95.40;;;;;;814093;176;26424;-83
2024/02/12 11:29:46;;;;;;;9.43;3.70;;;11.40;92.40;;;;;;811566;176;26411;-83
2024/02/12 11:32:11;;;;;;;10.97;3.90;;;11.20;93.00;;;;;;811641;176;26427;-84
2024/02/12 11:34:38;;;;;;;6.97;3.43;;;11.00;93.10;;;;;;809739;173;26433;-83
2024/02/12 11:37:07;;;;;;;17.00;7.97;;;10.80;94.00;;;;;;808606;176;26426;-85
2024/02/12 11:39:33;;;;;;;16.97;6.17;;;10.80;94.90;;;;;;813113;173;27007;-84
2024/02/12 11:41:59;;;;;;;10.43;4.93;;;10.90;96.60;;;;;;811791;173;28072;-83
2024/02/12 11:44:26;;;;;;;10.77;4.50;;;11.00;93.80;;;;;;812652;177;26406;-82
2024/02/12 11:46:56;;;;;;;7.93;3.50;;;10.90;94.00;;;;;;810253;177;26413;-83
2024/02/12 11:49:22;;;;;;;6.00;3.10;;;10.90;94.00;;;;;;811561;177;26391;-83
2024/02/12 11:51:51;;;;;;;8.47;4.33;;;10.90;93.70;;;;;;812137;177;26400;-84
2024/02/12 11:54:16;;;;;;;9.07;4.80;;;10.80;96.00;;;;;;808665;177;26419;-82
2024/02/12 11:56:43;;;;;;;9.67;3.50;;;10.80;96.10;;;;;;809972;177;26430;-83
2024/02/12 11:59:12;;;;;;;9.10;5.00;;;10.70;94.80;;;;;;810652;177;26438;-83
2024/02/12 12:01:47;;;;;;;10.13;4.47;;;10.70;94.20;;;;;;811348;174;26406;-83
2024/02/12 12:04:16;;;;;;;5.90;3.37;;;10.70;94.10;;;;;;811600;177;26430;-85
2024/02/12 12:06:43;;;;;;;16.10;7.23;;;11.00;93.70;;;;;;811657;177;26484;-82
2024/02/12 12:09:15;;;;;;;36.67;18.40;;;12.70;89.60;;;;;;811517;172;26437;-84
2024/02/12 12:11:42;;;;;;;10.20;5.80;;;13.20;87.60;;;;;;814566;176;26570;-85
2024/02/12 12:14:09;;;;;;;26.57;13.17;;;12.70;86.40;;;;;;812605;176;26430;-83
2024/02/12 12:16:35;;;;;;;13.70;5.33;;;11.90;89.60;;;;;;811007;173;26431;-83
2024/02/12 12:19:04;;;;;;;7.73;3.83;;;11.50;90.10;;;;;;809296;175;26418;-84
2024/02/12 12:21:30;;;;;;;5.43;3.27;;;11.90;92.30;;;;;;810961;173;26456;-83
2024/02/12 12:23:57;;;;;;;8.27;3.07;;;11.90;89.20;;;;;;810497;176;26459;-83
2024/02/12 12:26:23;;;;;;;8.77;5.33;;;11.40;90.20;;;;;;809863;176;26388;-83
2024/02/12 12:28:50;;;;;;;8.17;3.80;;;11.20;91.20;;;;;;811006;176;26990;-83
2024/02/12 12:31:17;;;;;;;9.97;3.63;;;11.00;93.40;;;;;;811591;172;26425;-81
2024/02/12 12:33:44;;;;;;;8.60;3.33;;;10.90;92.70;;;;;;811938;176;26408;-83
2024/02/12 12:36:12;;;;;;;8.97;4.90;;;10.70;94.30;;;;;;811877;176;26401;-83
2024/02/12 12:38:39;;;;;;;16.17;7.23;;;10.30;97.00;;;;;;812178;174;26486;-82
2024/02/12 12:41:07;;;;;;;11.20;6.43;;;10.00;99.70;;;;;;811698;176;26570;-82
2024/02/12 12:43:33;;;;;;;29.13;14.67;;;9.60;99.90;;;;;;810034;174;26416;-82
2024/02/12 12:46:00;;;;;;;26.83;14.30;;;9.30;99.90;;;;;;809904;176;26441;-82
2024/02/12 12:48:27;;;;;;;28.40;12.77;;;9.40;99.90;;;;;;812572;171;26433;-82
2024/02/12 12:50:54;;;;;;;23.93;14.60;;;10.10;99.90;;;;;;810022;177;27008;-83
2024/02/12 12:53:20;;;;;;;34.23;18.77;;;11.00;99.90;;;;;;810470;177;26409;-83